createdAt,value
2022-09-26T20:41:56.895Z,14.97
2022-09-26T20:44:30.244Z,15.50
2022-09-26T20:47:00.574Z,15.93
2022-09-26T20:49:35.077Z,16.13
2022-09-26T20:52:04.196Z,15.15
2022-09-26T20:54:33.395Z,14.98
2022-09-26T20:57:04.249Z,14.13
2022-09-26T20:59:35.371Z,14.45
2022-09-26T21:02:23.892Z,14.23
2022-09-26T21:04:52.732Z,14.82
2022-09-26T21:07:22.634Z,15.30
2022-09-26T21:09:50.800Z,15.20
2022-09-26T21:12:19.515Z,15.50
2022-09-26T21:14:47.491Z,15.10
2022-09-26T21:17:18.530Z,15.10
2022-09-26T21:19:46.946Z,16.45
2022-09-26T21:22:37.589Z,15.18
2022-09-26T21:25:07.106Z,14.82
2022-09-26T21:27:35.332Z,15.43
2022-09-26T21:30:04.060Z,15.70
2022-09-26T21:32:33.846Z,15.50
2022-09-26T21:35:04.245Z,15.68
2022-09-26T21:37:32.526Z,16.85
2022-09-26T21:40:02.407Z,15.32
2022-09-26T21:42:30.846Z,15.02
2022-09-26T21:45:06.102Z,14.80
2022-09-26T21:47:36.939Z,15.18
2022-09-26T21:50:08.760Z,15.07
2022-09-26T21:52:59.451Z,15.10
2022-09-26T21:55:33.892Z,15.80
2022-09-26T21:58:07.973Z,14.75
2022-09-26T22:00:36.332Z,16.08
2022-09-26T22:03:04.655Z,15.70
2022-09-26T22:05:33.225Z,16.58
2022-09-26T22:08:02.445Z,16.63
2022-09-26T22:10:31.728Z,16.52
2022-09-26T22:12:59.967Z,16.08
2022-09-26T22:15:28.165Z,15.75
2022-09-26T22:17:56.479Z,14.88
2022-09-26T22:20:24.634Z,14.45
2022-09-26T22:22:55.944Z,14.45
2022-09-26T22:25:24.188Z,13.95
2022-09-26T22:27:52.387Z,14.85
2022-09-26T22:30:20.591Z,14.98
2022-09-26T22:32:48.795Z,15.77
2022-09-26T22:35:16.940Z,12.25
2022-09-26T22:37:45.090Z,11.05
2022-09-26T22:40:13.254Z,10.73
2022-09-26T22:42:41.499Z,11.18
2022-09-26T22:45:10.130Z,10.13
2022-09-26T22:47:38.655Z,9.15
2022-09-26T22:50:07.052Z,8.82
2022-09-26T22:52:35.209Z,10.52
2022-09-26T22:55:03.450Z,8.88
2022-09-26T22:57:31.801Z,8.85
2022-09-26T23:00:02.122Z,9.15
2022-09-26T23:02:31.028Z,8.63
2022-09-26T23:04:59.239Z,7.90
2022-09-26T23:07:27.320Z,8.52
2022-09-26T23:09:55.520Z,9.13
2022-09-26T23:12:23.841Z,10.13
2022-09-26T23:14:51.919Z,10.45
2022-09-26T23:17:20.052Z,12.05
2022-09-26T23:19:48.122Z,13.82
2022-09-26T23:22:16.241Z,14.32
2022-09-26T23:24:44.319Z,16.35
2022-09-26T23:27:12.645Z,16.65
2022-09-26T23:29:41.807Z,17.98
2022-09-26T23:32:09.924Z,19.48
2022-09-26T23:34:38.045Z,20.52
2022-09-26T23:37:06.164Z,20.85
2022-09-26T23:39:34.174Z,21.85
2022-09-26T23:42:03.042Z,22.48
2022-09-26T23:44:32.640Z,24.08
2022-09-26T23:47:02.966Z,23.58
2022-09-26T23:49:31.558Z,23.48
2022-09-26T23:51:59.716Z,23.98
2022-09-26T23:54:27.914Z,22.83
2022-09-26T23:56:55.980Z,20.83
2022-09-26T23:59:24.255Z,20.13
